DLH8YT LEBL-EDDF
Flight info
| Callsign | DLH8YT |
|---|---|
| Flight time | N/A |
| Altitude | 36000 |
| Route | DALIN N870 DIBER UN870 SOSUR DCT RISOR T45 VENAT DCT MOLUS N871 DITON/N0457F350 DCT EMPAX EMPAX5C |
| Aircraft | A320/M-SDE3FGHIRWY/LB1 |
Departure
| Time | 2026-04-28 13:12 |
|---|---|
| Airport | Josep Tarradellas Barcelona-El Prat Airport (LEBL) |
Arrival
| Time | N/A |
|---|---|
| Airport | Frankfurt Main Airport (EDDF) |
| Time | Latitude | Longitude | Altitude | Speed | Heading |
|---|---|---|---|---|---|
| 2026-04-28 13:00 | 41.29097 | 2.07796 | 19 ft | 0 kts | 155° |
| 2026-04-28 13:01 | 41.29098 | 2.07796 | 19 ft | 1 kts | 155° |
| 2026-04-28 13:02 | 41.29112 | 2.07787 | 19 ft | 3 kts | 155° |
| 2026-04-28 13:02 | 41.29131 | 2.07776 | 19 ft | 3 kts | 155° |
| 2026-04-28 13:02 | 41.29149 | 2.07764 | 21 ft | 3 kts | 152° |
| 2026-04-28 13:02 | 41.29164 | 2.07751 | 21 ft | 3 kts | 121° |
| 2026-04-28 13:03 | 41.29168 | 2.07737 | 20 ft | 1 kts | 66° |
| 2026-04-28 13:03 | 41.29165 | 2.07724 | 23 ft | 3 kts | 39° |
| 2026-04-28 13:03 | 41.29162 | 2.07721 | 23 ft | 0 kts | 65° |
| 2026-04-28 13:05 | 41.29171 | 2.07746 | 20 ft | 8 kts | 65° |
| 2026-04-28 13:05 | 41.29192 | 2.07806 | 19 ft | 7 kts | 65° |
| 2026-04-28 13:06 | 41.29228 | 2.07911 | 19 ft | 16 kts | 65° |
| 2026-04-28 13:06 | 41.29265 | 2.08020 | 19 ft | 13 kts | 65° |
| 2026-04-28 13:06 | 41.29301 | 2.08122 | 19 ft | 12 kts | 66° |
| 2026-04-28 13:06 | 41.29331 | 2.08213 | 19 ft | 10 kts | 66° |
| 2026-04-28 13:07 | 41.29359 | 2.08292 | 20 ft | 9 kts | 65° |
| 2026-04-28 13:07 | 41.29360 | 2.08373 | 21 ft | 13 kts | 125° |
| 2026-04-28 13:07 | 41.29274 | 2.08435 | 22 ft | 15 kts | 155° |
| 2026-04-28 13:07 | 41.29172 | 2.08496 | 19 ft | 18 kts | 155° |
| 2026-04-28 13:08 | 41.29043 | 2.08573 | 17 ft | 21 kts | 156° |
| 2026-04-28 13:08 | 41.28912 | 2.08653 | 18 ft | 17 kts | 155° |
| 2026-04-28 13:08 | 41.28874 | 2.08763 | 17 ft | 15 kts | 68° |
| 2026-04-28 13:08 | 41.28919 | 2.08894 | 16 ft | 18 kts | 66° |
| 2026-04-28 13:09 | 41.28975 | 2.09061 | 16 ft | 22 kts | 65° |
| 2026-04-28 13:09 | 41.29052 | 2.09279 | 17 ft | 28 kts | 66° |
| 2026-04-28 13:09 | 41.29134 | 2.09522 | 17 ft | 30 kts | 66° |
| 2026-04-28 13:09 | 41.29222 | 2.09779 | 17 ft | 31 kts | 65° |
| 2026-04-28 13:10 | 41.29296 | 2.09960 | 17 ft | 16 kts | 66° |
| 2026-04-28 13:10 | 41.29341 | 2.10091 | 16 ft | 15 kts | 65° |
| 2026-04-28 13:10 | 41.29364 | 2.10226 | 15 ft | 16 kts | 109° |
| 2026-04-28 13:10 | 41.29268 | 2.10307 | 14 ft | 17 kts | 157° |
| 2026-04-28 13:11 | 41.29191 | 2.10236 | 16 ft | 15 kts | 240° |
| 2026-04-28 13:11 | 41.29140 | 2.10083 | 19 ft | 32 kts | 246° |
| 2026-04-28 13:11 | 41.28933 | 2.09493 | 18 ft | 105 kts | 245° |
| 2026-04-28 13:11 | 41.28547 | 2.08375 | 55 ft | 155 kts | 244° |
| 2026-04-28 13:12 | 41.28081 | 2.07062 | 690 ft | 156 kts | 232° |
| 2026-04-28 13:12 | 41.27264 | 2.06155 | 1346 ft | 157 kts | 196° |
| 2026-04-28 13:12 | 41.26129 | 2.06052 | 1794 ft | 173 kts | 177° |
| 2026-04-28 13:12 | 41.24869 | 2.06041 | 2250 ft | 189 kts | 181° |
| 2026-04-28 13:13 | 41.23497 | 2.05950 | 2629 ft | 208 kts | 181° |
| 2026-04-28 13:13 | 41.21984 | 2.05869 | 2994 ft | 228 kts | 181° |
| 2026-04-28 13:13 | 41.20317 | 2.05802 | 3354 ft | 244 kts | 180° |
| 2026-04-28 13:13 | 41.18623 | 2.05753 | 3712 ft | 244 kts | 180° |
| 2026-04-28 13:14 | 41.16941 | 2.05993 | 4088 ft | 249 kts | 159° |
| 2026-04-28 13:14 | 41.15516 | 2.07349 | 4838 ft | 260 kts | 129° |
| 2026-04-28 13:14 | 41.14650 | 2.09487 | 5750 ft | 266 kts | 114° |
| 2026-04-28 13:14 | 41.13986 | 2.11763 | 6650 ft | 270 kts | 112° |
| 2026-04-28 13:15 | 41.13328 | 2.14115 | 7507 ft | 274 kts | 112° |
| 2026-04-28 13:15 | 41.12658 | 2.16516 | 8060 ft | 277 kts | 112° |
| 2026-04-28 13:15 | 41.11986 | 2.18929 | 8697 ft | 280 kts | 112° |
| 2026-04-28 13:15 | 41.11304 | 2.21367 | 9350 ft | 283 kts | 112° |
| 2026-04-28 13:16 | 41.10632 | 2.23837 | 10004 ft | 288 kts | 107° |
| 2026-04-28 13:16 | 41.10438 | 2.26554 | 10422 ft | 311 kts | 84° |
| 2026-04-28 13:16 | 41.11215 | 2.29344 | 10674 ft | 338 kts | 57° |
| 2026-04-28 13:16 | 41.12674 | 2.31917 | 10866 ft | 362 kts | 52° |
| 2026-04-28 13:17 | 41.14284 | 2.34603 | 11300 ft | 376 kts | 52° |
| 2026-04-28 13:17 | 41.15937 | 2.37333 | 11959 ft | 382 kts | 52° |
| 2026-04-28 13:17 | 41.17610 | 2.40106 | 12658 ft | 387 kts | 52° |
| 2026-04-28 13:17 | 41.19294 | 2.42918 | 13353 ft | 392 kts | 52° |
| 2026-04-28 13:18 | 41.20992 | 2.45775 | 14013 ft | 397 kts | 52° |
| 2026-04-28 13:18 | 41.22707 | 2.48676 | 14607 ft | 401 kts | 52° |
| 2026-04-28 13:18 | 41.24439 | 2.51614 | 15196 ft | 406 kts | 52° |
| 2026-04-28 13:18 | 41.26187 | 2.54586 | 15779 ft | 410 kts | 52° |
| 2026-04-28 13:19 | 41.27922 | 2.57542 | 16339 ft | 414 kts | 52° |
| 2026-04-28 13:19 | 41.29729 | 2.60622 | 16918 ft | 418 kts | 52° |
| 2026-04-28 13:19 | 41.31530 | 2.63690 | 17470 ft | 422 kts | 52° |
| 2026-04-28 13:19 | 41.33341 | 2.66775 | 18026 ft | 426 kts | 53° |
| 2026-04-28 13:20 | 41.35154 | 2.69862 | 18535 ft | 430 kts | 53° |
| 2026-04-28 13:20 | 41.37002 | 2.73014 | 18893 ft | 433 kts | 53° |
| 2026-04-28 13:20 | 41.38852 | 2.76174 | 18996 ft | 433 kts | 53° |
| 2026-04-28 13:20 | 41.40706 | 2.79342 | 19032 ft | 433 kts | 53° |
| 2026-04-28 13:21 | 41.42553 | 2.82502 | 19029 ft | 433 kts | 53° |
| 2026-04-28 13:21 | 41.44405 | 2.85678 | 19030 ft | 433 kts | 53° |
| 2026-04-28 13:21 | 41.46250 | 2.88847 | 19030 ft | 433 kts | 53° |
| 2026-04-28 13:21 | 41.48090 | 2.92012 | 19032 ft | 433 kts | 53° |
| 2026-04-28 13:22 | 41.49935 | 2.95182 | 19029 ft | 433 kts | 53° |
| 2026-04-28 13:22 | 41.51779 | 2.98354 | 19030 ft | 433 kts | 53° |
| 2026-04-28 13:22 | 41.53623 | 3.01529 | 19031 ft | 433 kts | 53° |
| 2026-04-28 13:22 | 41.55468 | 3.04710 | 19029 ft | 433 kts | 53° |
| 2026-04-28 13:23 | 41.57308 | 3.07891 | 19032 ft | 433 kts | 53° |
| 2026-04-28 13:23 | 41.59152 | 3.11078 | 19032 ft | 433 kts | 53° |
| 2026-04-28 13:23 | 41.60990 | 3.14259 | 19032 ft | 433 kts | 53° |
| 2026-04-28 13:23 | 41.62828 | 3.17442 | 19032 ft | 433 kts | 53° |
| 2026-04-28 13:24 | 41.64666 | 3.20628 | 19032 ft | 433 kts | 53° |
| 2026-04-28 13:24 | 41.66505 | 3.23819 | 19032 ft | 433 kts | 53° |
| 2026-04-28 13:24 | 41.68341 | 3.27009 | 19032 ft | 433 kts | 53° |
| 2026-04-28 13:24 | 41.70181 | 3.30211 | 19237 ft | 436 kts | 53° |
| 2026-04-28 13:25 | 41.72029 | 3.33436 | 19782 ft | 438 kts | 53° |
| 2026-04-28 13:25 | 41.73171 | 3.35664 | 20100 ft | 439 kts | 59° |
| 2026-04-28 13:25 | 41.74558 | 3.39307 | 20575 ft | 441 kts | 67° |
| 2026-04-28 13:25 | 41.75807 | 3.43090 | 21046 ft | 444 kts | 67° |
| 2026-04-28 13:26 | 41.77063 | 3.46876 | 21521 ft | 447 kts | 67° |
| 2026-04-28 13:26 | 41.78752 | 3.51955 | 22116 ft | 451 kts | 66° |
| 2026-04-28 13:26 | 41.80033 | 3.55803 | 22567 ft | 454 kts | 66° |
| 2026-04-28 13:26 | 41.80905 | 3.58422 | 22848 ft | 456 kts | 66° |
| 2026-04-28 13:27 | 41.82198 | 3.62320 | 23284 ft | 459 kts | 66° |
| 2026-04-28 13:27 | 41.83493 | 3.66241 | 23687 ft | 461 kts | 66° |
| 2026-04-28 13:27 | 41.84794 | 3.70187 | 24047 ft | 464 kts | 66° |
| 2026-04-28 13:27 | 41.86085 | 3.74109 | 24401 ft | 466 kts | 66° |
| 2026-04-28 13:28 | 41.87399 | 3.78107 | 24765 ft | 468 kts | 66° |
| 2026-04-28 13:28 | 41.88713 | 3.82114 | 25112 ft | 470 kts | 66° |
| 2026-04-28 13:28 | 41.90034 | 3.86143 | 25460 ft | 472 kts | 66° |
| 2026-04-28 13:28 | 41.91361 | 3.90198 | 25796 ft | 474 kts | 66° |
| 2026-04-28 13:29 | 41.92690 | 3.94264 | 26125 ft | 477 kts | 66° |
| 2026-04-28 13:29 | 41.94022 | 3.98349 | 26425 ft | 479 kts | 66° |
| 2026-04-28 13:29 | 41.95361 | 4.02458 | 26732 ft | 481 kts | 66° |
| 2026-04-28 13:29 | 41.96707 | 4.06589 | 27036 ft | 483 kts | 66° |
| 2026-04-28 13:30 | 41.98057 | 4.10735 | 27325 ft | 485 kts | 66° |
| 2026-04-28 13:30 | 41.99406 | 4.14895 | 27643 ft | 487 kts | 66° |
| 2026-04-28 13:30 | 42.00761 | 4.19083 | 27937 ft | 489 kts | 66° |
| 2026-04-28 13:30 | 42.02121 | 4.23289 | 28315 ft | 489 kts | 66° |
| 2026-04-28 13:31 | 42.04796 | 4.31598 | 29182 ft | 486 kts | 66° |
| 2026-04-28 13:31 | 42.06139 | 4.35763 | 29602 ft | 485 kts | 65° |
| 2026-04-28 13:31 | 42.07777 | 4.39793 | 30036 ft | 484 kts | 56° |
| 2026-04-28 13:32 | 42.09772 | 4.43352 | 30392 ft | 482 kts | 47° |
| 2026-04-28 13:32 | 42.12142 | 4.46523 | 30735 ft | 481 kts | 40° |
| 2026-04-28 13:32 | 42.14646 | 4.49522 | 31049 ft | 481 kts | 40° |
| 2026-04-28 13:32 | 42.17143 | 4.52512 | 31397 ft | 480 kts | 40° |
| 2026-04-28 13:33 | 42.19641 | 4.55511 | 31746 ft | 480 kts | 40° |
| 2026-04-28 13:33 | 42.22126 | 4.58503 | 32099 ft | 479 kts | 40° |
| 2026-04-28 13:33 | 42.24603 | 4.61497 | 32483 ft | 477 kts | 40° |
| 2026-04-28 13:33 | 42.27072 | 4.64488 | 32853 ft | 476 kts | 40° |
| 2026-04-28 13:34 | 42.29536 | 4.67476 | 33217 ft | 475 kts | 40° |
| 2026-04-28 13:34 | 42.31967 | 4.70425 | 33582 ft | 474 kts | 40° |
| 2026-04-28 13:34 | 42.34421 | 4.73400 | 33927 ft | 474 kts | 40° |